createdAt,value
2016-08-18T00:00:38.739Z,1007.47
2016-08-18T00:01:38.762Z,1007.43
2016-08-18T00:02:38.788Z,1007.44
2016-08-18T00:03:38.812Z,1007.41
2016-08-18T00:04:38.838Z,1007.4
2016-08-18T00:05:38.859Z,1007.39
2016-08-18T00:06:38.884Z,1007.38
2016-08-18T00:07:38.911Z,1007.4
2016-08-18T00:08:38.934Z,1007.37
2016-08-18T00:09:38.956Z,1007.37
2016-08-18T00:10:38.983Z,1007.36
2016-08-18T00:11:39.007Z,1007.35
2016-08-18T00:12:39.032Z,1007.37
2016-08-18T00:13:39.056Z,1007.31
2016-08-18T00:14:39.081Z,1007.32
2016-08-18T00:15:39.104Z,1007.3
2016-08-18T00:16:39.129Z,1007.29
2016-08-18T00:18:39.179Z,1007.25
2016-08-18T00:19:39.203Z,1007.25
2016-08-18T00:20:39.229Z,1007.19
2016-08-18T00:21:39.253Z,1007.2
2016-08-18T00:22:39.327Z,1007.16
2016-08-18T00:23:39.301Z,1007.14
2016-08-18T00:24:39.327Z,1007.13
2016-08-18T00:25:39.352Z,1007.06
2016-08-18T00:26:39.374Z,1007.08
2016-08-18T00:27:39.400Z,1007.07
2016-08-18T00:28:39.425Z,1007.05
2016-08-18T00:29:39.449Z,1007.07
2016-08-18T00:30:39.474Z,1007.08
2016-08-18T00:31:39.496Z,1007.06
2016-08-18T00:32:39.521Z,1007.04
2016-08-18T00:34:39.569Z,1007.02
2016-08-18T00:35:39.595Z,1007.06
2016-08-18T00:36:39.619Z,1007.05
2016-08-18T00:37:39.643Z,1007.1
2016-08-18T00:38:39.668Z,1007.01
2016-08-18T00:39:39.691Z,1007.06
2016-08-18T00:40:39.722Z,1007.02
2016-08-18T00:41:39.740Z,1007.02
2016-08-18T00:42:39.762Z,1007.04
2016-08-18T00:43:39.790Z,1007.04
2016-08-18T00:44:39.812Z,1007.03
2016-08-18T00:45:39.840Z,1007.01
2016-08-18T00:46:39.862Z,1007
2016-08-18T00:47:39.888Z,1007
2016-08-18T00:48:39.912Z,1006.94
2016-08-18T00:50:39.957Z,1006.95
2016-08-18T00:51:39.982Z,1006.98
2016-08-18T00:52:40.007Z,1006.92
2016-08-18T00:53:40.030Z,1006.91
2016-08-18T00:54:40.055Z,1006.89
2016-08-18T00:55:40.080Z,1006.88
2016-08-18T00:56:40.106Z,1006.91
2016-08-18T00:57:40.130Z,1006.88
2016-08-18T00:58:40.155Z,1006.89
2016-08-18T00:59:40.177Z,1006.87
2016-08-18T01:00:40.200Z,1006.89
2016-08-18T01:01:40.224Z,1006.84
2016-08-18T01:02:40.249Z,1006.82
2016-08-18T01:03:40.274Z,1006.85
2016-08-18T01:04:40.297Z,1006.79
2016-08-18T01:06:40.348Z,1006.78
2016-08-18T01:07:40.371Z,1006.77
2016-08-18T01:08:40.396Z,1006.78
2016-08-18T01:09:40.420Z,1006.78
2016-08-18T01:10:40.443Z,1006.73
2016-08-18T01:11:40.466Z,1006.71
2016-08-18T01:12:42.545Z,1006.67
2016-08-18T01:13:40.517Z,1006.65
2016-08-18T01:14:40.539Z,1006.7
2016-08-18T01:15:40.565Z,1006.67
2016-08-18T01:16:40.586Z,1006.72
2016-08-18T01:17:40.614Z,1006.7
2016-08-18T01:18:40.637Z,1006.68
2016-08-18T01:19:40.659Z,1006.72
2016-08-18T01:21:40.711Z,1006.7
2016-08-18T01:22:40.734Z,1006.73
2016-08-18T01:23:42.812Z,1006.71
2016-08-18T01:24:40.783Z,1006.74
2016-08-18T01:25:40.807Z,1006.69
2016-08-18T01:26:40.831Z,1006.7
2016-08-18T01:27:40.855Z,1006.71
2016-08-18T01:28:40.878Z,1006.67
2016-08-18T01:29:40.900Z,1006.7
2016-08-18T01:30:40.926Z,1006.67
2016-08-18T01:31:40.952Z,1006.7
2016-08-18T01:32:40.976Z,1006.66
2016-08-18T01:33:41.000Z,1006.68
2016-08-18T01:34:41.023Z,1006.67
2016-08-18T01:35:41.046Z,1006.66
2016-08-18T01:36:41.072Z,1006.63
2016-08-18T01:37:41.094Z,1006.61
2016-08-18T01:38:41.119Z,1006.6
2016-08-18T01:39:41.144Z,1006.65
2016-08-18T01:40:41.167Z,1006.63
2016-08-18T01:41:41.192Z,1006.59
2016-08-18T01:42:41.214Z,1006.61
2016-08-18T01:43:41.241Z,1006.61
2016-08-18T01:44:41.262Z,1006.62
2016-08-18T01:45:41.286Z,1006.59
2016-08-18T01:46:41.311Z,1006.6
2016-08-18T01:47:41.334Z,1006.56
2016-08-18T01:48:41.360Z,1006.52
2016-08-18T01:49:41.382Z,1006.55
2016-08-18T01:50:41.409Z,1006.53
2016-08-18T01:51:41.430Z,1006.49
2016-08-18T01:53:41.480Z,1006.49
2016-08-18T01:54:41.502Z,1006.48
2016-08-18T01:55:41.528Z,1006.49
2016-08-18T01:56:41.552Z,1006.46
2016-08-18T01:57:41.574Z,1006.47
2016-08-18T01:58:41.598Z,1006.43
2016-08-18T01:59:41.622Z,1006.43
2016-08-18T02:00:41.648Z,1006.46
2016-08-18T02:01:41.672Z,1006.4
2016-08-18T02:02:41.696Z,1006.43
2016-08-18T02:03:41.719Z,1006.39
2016-08-18T02:04:41.743Z,1006.4
2016-08-18T02:05:41.768Z,1006.37
2016-08-18T02:06:41.790Z,1006.43
2016-08-18T02:07:41.815Z,1006.36
2016-08-18T02:09:41.865Z,1006.38
2016-08-18T02:10:41.893Z,1006.39
2016-08-18T02:11:41.911Z,1006.35
2016-08-18T02:12:41.936Z,1006.34
2016-08-18T02:13:41.957Z,1006.34
2016-08-18T02:14:41.982Z,1006.33
2016-08-18T02:15:42.007Z,1006.33
2016-08-18T02:16:42.030Z,1006.34
2016-08-18T02:17:42.054Z,1006.3
2016-08-18T02:18:42.076Z,1006.33
2016-08-18T02:19:42.100Z,1006.31
2016-08-18T02:20:42.124Z,1006.28
2016-08-18T02:21:42.149Z,1006.28
2016-08-18T02:22:42.171Z,1006.25
2016-08-18T02:23:42.248Z,1006.26
2016-08-18T02:25:42.293Z,1006.24
2016-08-18T02:26:42.270Z,1006.26
2016-08-18T02:27:42.302Z,1006.26
2016-08-18T02:28:42.316Z,1006.24
2016-08-18T02:29:42.340Z,1006.26
2016-08-18T02:30:42.364Z,1006.21
2016-08-18T02:31:42.387Z,1006.21
2016-08-18T02:32:42.411Z,1006.19
2016-08-18T02:33:42.434Z,1006.2
2016-08-18T02:34:42.458Z,1006.21
2016-08-18T02:35:42.483Z,1006.17
2016-08-18T02:36:42.507Z,1006.2
2016-08-18T02:37:42.529Z,1006.22
2016-08-18T02:38:42.554Z,1006.23
2016-08-18T02:39:42.578Z,1006.2
2016-08-18T02:41:42.626Z,1006.2
2016-08-18T02:42:42.651Z,1006.13
2016-08-18T02:43:42.672Z,1006.1
2016-08-18T02:44:42.696Z,1006.11
2016-08-18T02:45:42.719Z,1006.14
2016-08-18T02:46:42.745Z,1006.09
2016-08-18T02:47:42.768Z,1006.11
2016-08-18T02:48:42.791Z,1006.08
2016-08-18T02:49:42.817Z,1006.07
2016-08-18T02:50:42.838Z,1006.06
2016-08-18T02:51:42.861Z,1006.07
2016-08-18T02:52:42.887Z,1006.05
2016-08-18T02:53:42.909Z,1006.01
2016-08-18T02:54:42.937Z,1006.04
2016-08-18T02:56:42.985Z,1006.05
2016-08-18T02:57:43.006Z,1006.02
2016-08-18T02:58:43.031Z,1006
2016-08-18T02:59:43.055Z,1006
2016-08-18T03:00:43.078Z,1006.03
2016-08-18T03:01:43.101Z,1005.99
2016-08-18T03:02:43.132Z,1005.94
2016-08-18T03:03:43.149Z,1005.97
2016-08-18T03:04:43.171Z,1005.95
2016-08-18T03:05:43.195Z,1005.93
2016-08-18T03:06:43.222Z,1005.9
2016-08-18T03:07:43.243Z,1005.87
2016-08-18T03:08:43.267Z,1005.89
2016-08-18T03:09:43.292Z,1005.89
2016-08-18T03:10:43.315Z,1005.87
2016-08-18T03:11:43.338Z,1005.85
2016-08-18T03:12:43.360Z,1005.9
2016-08-18T03:13:43.384Z,1005.91
2016-08-18T03:14:43.409Z,1005.91
2016-08-18T03:15:43.434Z,1005.88
2016-08-18T03:16:43.456Z,1005.87
2016-08-18T03:17:43.482Z,1005.86
2016-08-18T03:18:43.504Z,1005.85
2016-08-18T03:19:43.529Z,1005.83
2016-08-18T03:20:43.550Z,1005.78
2016-08-18T03:21:43.575Z,1005.8
2016-08-18T03:22:43.598Z,1005.75
2016-08-18T03:23:43.621Z,1005.76
2016-08-18T03:24:43.647Z,1005.78
2016-08-18T03:25:43.669Z,1005.75
2016-08-18T03:26:43.695Z,1005.76
2016-08-18T03:28:43.741Z,1005.77
2016-08-18T03:29:43.766Z,1005.71
2016-08-18T03:30:43.790Z,1005.72
2016-08-18T03:31:43.810Z,1005.71
2016-08-18T03:32:43.835Z,1005.7
2016-08-18T03:33:43.860Z,1005.69
2016-08-18T03:34:43.882Z,1005.71
2016-08-18T03:35:43.907Z,1005.74
2016-08-18T03:36:43.932Z,1005.72
2016-08-18T03:37:43.954Z,1005.71
2016-08-18T03:38:43.979Z,1005.7
2016-08-18T03:39:44.000Z,1005.74
2016-08-18T03:40:44.025Z,1005.72
2016-08-18T03:41:44.049Z,1005.74
2016-08-18T03:42:44.074Z,1005.78
2016-08-18T03:44:44.121Z,1005.75
2016-08-18T03:45:44.142Z,1005.76
2016-08-18T03:46:44.169Z,1005.73
2016-08-18T03:47:44.190Z,1005.73
2016-08-18T03:48:44.215Z,1005.72
2016-08-18T03:49:44.237Z,1005.72
2016-08-18T03:50:44.263Z,1005.71
2016-08-18T03:51:44.285Z,1005.71
2016-08-18T03:52:44.309Z,1005.73
2016-08-18T03:53:44.334Z,1005.72
2016-08-18T03:54:44.356Z,1005.72
2016-08-18T03:55:44.383Z,1005.71
2016-08-18T03:56:44.405Z,1005.72
2016-08-18T03:57:44.430Z,1005.72
2016-08-18T03:58:44.453Z,1005.76
2016-08-18T04:00:44.500Z,1005.71
2016-08-18T04:01:44.523Z,1005.7
2016-08-18T04:02:44.548Z,1005.75
2016-08-18T04:03:44.568Z,1005.74
2016-08-18T04:04:44.592Z,1005.72
2016-08-18T04:05:44.616Z,1005.72
2016-08-18T04:06:44.640Z,1005.72
2016-08-18T04:07:44.663Z,1005.76
2016-08-18T04:08:44.688Z,1005.73
2016-08-18T04:09:44.710Z,1005.72
2016-08-18T04:10:44.734Z,1005.71
2016-08-18T04:11:44.758Z,1005.72
2016-08-18T04:12:44.784Z,1005.69
2016-08-18T04:13:44.806Z,1005.7
2016-08-18T04:14:44.831Z,1005.73
2016-08-18T04:16:44.876Z,1005.71
2016-08-18T04:17:44.903Z,1005.75
2016-08-18T04:18:44.922Z,1005.74
2016-08-18T04:19:44.948Z,1005.75
2016-08-18T04:20:44.971Z,1005.76
2016-08-18T04:21:44.996Z,1005.75
2016-08-18T04:22:45.018Z,1005.77
2016-08-18T04:23:45.042Z,1005.78
2016-08-18T04:24:45.066Z,1005.79
2016-08-18T04:25:45.089Z,1005.8
2016-08-18T04:26:45.264Z,1005.8
2016-08-18T04:27:45.139Z,1005.79
2016-08-18T04:28:45.161Z,1005.78
2016-08-18T04:29:45.186Z,1005.8
2016-08-18T04:31:45.233Z,1005.83
2016-08-18T04:32:45.257Z,1005.85
2016-08-18T04:33:45.283Z,1005.82
2016-08-18T04:34:45.302Z,1005.86
2016-08-18T04:35:45.329Z,1005.81
2016-08-18T04:36:45.352Z,1005.84
2016-08-18T04:37:45.373Z,1005.83
2016-08-18T04:38:45.399Z,1005.83
2016-08-18T04:39:45.422Z,1005.82
2016-08-18T04:40:45.447Z,1005.8
2016-08-18T04:41:45.470Z,1005.82
2016-08-18T04:42:45.495Z,1005.85
2016-08-18T04:43:45.519Z,1005.84
2016-08-18T04:44:45.543Z,1005.85
2016-08-18T04:45:45.565Z,1005.86
2016-08-18T04:46:45.592Z,1005.84
2016-08-18T04:47:45.615Z,1005.87
2016-08-18T04:48:45.637Z,1005.84
2016-08-18T04:49:45.661Z,1005.85
2016-08-18T04:50:45.684Z,1005.83
2016-08-18T04:51:45.710Z,1005.86
2016-08-18T04:52:45.738Z,1005.87
2016-08-18T04:53:45.757Z,1005.88
2016-08-18T04:54:45.781Z,1005.85
2016-08-18T04:55:45.804Z,1005.86
2016-08-18T04:56:45.830Z,1005.83
2016-08-18T04:57:45.853Z,1005.84
2016-08-18T04:58:45.876Z,1005.74
2016-08-18T04:59:45.903Z,1005.74
2016-08-18T05:00:45.926Z,1005.77
2016-08-18T05:01:45.948Z,1005.75
2016-08-18T05:03:45.999Z,1005.73
2016-08-18T05:04:46.020Z,1005.71
2016-08-18T05:05:46.044Z,1005.7
2016-08-18T05:06:46.071Z,1005.68
2016-08-18T05:07:46.096Z,1005.71
2016-08-18T05:08:46.119Z,1005.67
2016-08-18T05:09:46.144Z,1005.68
2016-08-18T05:10:46.168Z,1005.7
2016-08-18T05:11:46.193Z,1005.69
2016-08-18T05:12:46.213Z,1005.64
2016-08-18T05:13:46.241Z,1005.64
2016-08-18T05:14:46.265Z,1005.62
2016-08-18T05:15:46.289Z,1005.62
2016-08-18T05:16:46.314Z,1005.62
2016-08-18T05:17:46.338Z,1005.62
2016-08-18T05:19:46.385Z,1005.63
2016-08-18T05:20:46.409Z,1005.63
2016-08-18T05:21:46.435Z,1005.63
2016-08-18T05:22:46.458Z,1005.66
2016-08-18T05:23:46.482Z,1005.63
2016-08-18T05:24:46.509Z,1005.57
2016-08-18T05:25:46.531Z,1005.6
2016-08-18T05:26:46.558Z,1005.6
2016-08-18T05:27:46.581Z,1005.62
2016-08-18T05:28:46.604Z,1005.63
2016-08-18T05:29:46.631Z,1005.6
2016-08-18T05:30:46.657Z,1005.64
2016-08-18T05:31:46.680Z,1005.65
2016-08-18T05:32:46.703Z,1005.64
2016-08-18T05:33:46.727Z,1005.58
2016-08-18T05:35:46.777Z,1005.59
2016-08-18T05:36:46.802Z,1005.59
2016-08-18T05:37:46.827Z,1005.61
2016-08-18T05:38:46.851Z,1005.59
2016-08-18T05:39:46.876Z,1005.61
2016-08-18T05:40:46.901Z,1005.63
2016-08-18T05:41:46.926Z,1005.61
2016-08-18T05:42:46.952Z,1005.65
2016-08-18T05:43:46.975Z,1005.62
2016-08-18T05:44:47.001Z,1005.59
2016-08-18T05:45:47.025Z,1005.62
2016-08-18T05:46:47.049Z,1005.6
2016-08-18T05:47:47.075Z,1005.58
2016-08-18T05:48:47.099Z,1005.63
2016-08-18T05:49:47.123Z,1005.6
2016-08-18T05:51:47.174Z,1005.61
2016-08-18T05:52:47.201Z,1005.59
2016-08-18T05:53:47.241Z,1005.6
2016-08-18T05:54:47.971Z,1005.55
2016-08-18T05:55:47.274Z,1005.58
2016-08-18T05:56:47.298Z,1005.57
2016-08-18T05:57:47.325Z,1005.57
2016-08-18T05:58:47.348Z,1005.59
2016-08-18T05:59:47.376Z,1005.56
2016-08-18T06:00:47.400Z,1005.58
2016-08-18T06:01:47.425Z,1005.6
2016-08-18T06:02:47.448Z,1005.62
2016-08-18T06:03:47.476Z,1005.61
2016-08-18T06:04:47.507Z,1005.58
2016-08-18T06:06:47.551Z,1005.61
2016-08-18T06:07:47.574Z,1005.63
2016-08-18T06:08:47.602Z,1005.6
2016-08-18T06:09:47.626Z,1005.58
2016-08-18T06:10:47.651Z,1005.58
2016-08-18T06:11:47.676Z,1005.6
2016-08-18T06:12:47.706Z,1005.58
2016-08-18T06:13:47.726Z,1005.56
2016-08-18T06:14:47.750Z,1005.61
2016-08-18T06:15:47.776Z,1005.52
2016-08-18T06:16:47.803Z,1005.52
2016-08-18T06:17:47.828Z,1005.52
2016-08-18T06:18:47.853Z,1005.5
2016-08-18T06:19:47.879Z,1005.53
2016-08-18T06:20:47.903Z,1005.53
2016-08-18T06:21:47.929Z,1005.58
2016-08-18T06:22:47.951Z,1005.59
2016-08-18T06:23:47.984Z,1005.59
2016-08-18T06:24:48.003Z,1005.59
2016-08-18T06:25:48.042Z,1005.63
2016-08-18T06:26:48.053Z,1005.6
2016-08-18T06:27:48.082Z,1005.62
2016-08-18T06:28:48.105Z,1005.63
2016-08-18T06:29:48.132Z,1005.65
2016-08-18T06:30:48.158Z,1005.64
2016-08-18T06:31:48.183Z,1005.64
2016-08-18T06:32:48.207Z,1005.68
2016-08-18T06:33:48.283Z,1005.62
2016-08-18T06:34:48.258Z,1005.62
2016-08-18T06:35:48.284Z,1005.62
2016-08-18T06:36:48.310Z,1005.55
2016-08-18T06:38:48.358Z,1005.58
2016-08-18T06:39:48.401Z,1005.56
2016-08-18T06:40:48.411Z,1005.58
2016-08-18T06:41:48.437Z,1005.59
2016-08-18T06:42:48.461Z,1005.58
2016-08-18T06:43:48.489Z,1005.6
2016-08-18T06:44:48.514Z,1005.58
2016-08-18T06:45:48.538Z,1005.61
2016-08-18T06:46:48.563Z,1005.62
2016-08-18T06:47:48.589Z,1005.59
2016-08-18T06:48:48.616Z,1005.63
2016-08-18T06:49:48.641Z,1005.63
2016-08-18T06:50:48.666Z,1005.61
2016-08-18T06:51:48.694Z,1005.61
2016-08-18T06:52:48.718Z,1005.63
2016-08-18T06:54:48.767Z,1005.61
2016-08-18T06:55:48.800Z,1005.63
2016-08-18T06:56:48.821Z,1005.61
2016-08-18T06:57:48.846Z,1005.58
2016-08-18T06:58:48.870Z,1005.63
2016-08-18T06:59:48.898Z,1005.64
2016-08-18T07:00:48.924Z,1005.62
2016-08-18T07:01:48.948Z,1005.64
2016-08-18T07:02:48.975Z,1005.66
2016-08-18T07:03:49.002Z,1005.68
2016-08-18T07:04:49.027Z,1005.65
2016-08-18T07:05:49.050Z,1005.66
2016-08-18T07:06:49.078Z,1005.67
2016-08-18T07:07:49.102Z,1005.66
2016-08-18T07:08:49.130Z,1005.66
2016-08-18T07:10:49.178Z,1005.68
2016-08-18T07:11:49.205Z,1005.65
2016-08-18T07:12:49.234Z,1005.71
2016-08-18T07:13:49.256Z,1005.72
2016-08-18T07:14:49.283Z,1005.7
2016-08-18T07:15:49.308Z,1005.72
2016-08-18T07:16:49.334Z,1005.72
2016-08-18T07:17:49.360Z,1005.71
2016-08-18T07:18:49.388Z,1005.73
2016-08-18T07:19:49.414Z,1005.73
2016-08-18T07:20:49.440Z,1005.7
2016-08-18T07:21:49.465Z,1005.72
2016-08-18T07:22:49.492Z,1005.72
2016-08-18T07:23:49.516Z,1005.72
2016-08-18T07:24:49.543Z,1005.76
2016-08-18T07:26:49.600Z,1005.76
2016-08-18T07:27:49.629Z,1005.79
2016-08-18T07:28:49.647Z,1005.73
2016-08-18T07:29:49.674Z,1005.76
2016-08-18T07:30:49.700Z,1005.79
2016-08-18T07:31:49.729Z,1005.73
2016-08-18T07:32:49.749Z,1005.74
2016-08-18T07:33:49.776Z,1005.74
2016-08-18T07:34:49.801Z,1005.69
2016-08-18T07:35:49.828Z,1005.74
2016-08-18T07:36:49.853Z,1005.75
2016-08-18T07:37:49.880Z,1005.79
2016-08-18T07:38:49.908Z,1005.79
2016-08-18T07:39:49.933Z,1005.79
2016-08-18T07:41:49.989Z,1005.8
2016-08-18T07:42:50.012Z,1005.82
2016-08-18T07:43:50.037Z,1005.8
2016-08-18T07:44:50.064Z,1005.86
2016-08-18T07:45:50.092Z,1005.79
2016-08-18T07:46:50.118Z,1005.8
2016-08-18T07:47:50.141Z,1005.76
2016-08-18T07:48:50.171Z,1005.8
2016-08-18T07:49:50.195Z,1005.81
2016-08-18T07:50:50.220Z,1005.8
2016-08-18T07:51:50.246Z,1005.8
2016-08-18T07:52:50.276Z,1005.8
2016-08-18T07:53:50.302Z,1005.78
2016-08-18T07:54:50.326Z,1005.78
2016-08-18T07:55:50.355Z,1005.82
2016-08-18T07:56:50.380Z,1005.76
2016-08-18T07:57:50.404Z,1005.77
2016-08-18T07:58:50.433Z,1005.72
2016-08-18T07:59:50.460Z,1005.68
2016-08-18T08:00:50.485Z,1005.71
2016-08-18T08:01:50.513Z,1005.67
2016-08-18T08:02:50.544Z,1005.65
2016-08-18T08:03:50.564Z,1005.66
2016-08-18T08:04:50.591Z,1005.66
2016-08-18T08:05:50.619Z,1005.66
2016-08-18T08:06:50.644Z,1005.68
2016-08-18T08:07:50.671Z,1005.61
2016-08-18T08:08:50.696Z,1005.64
2016-08-18T08:09:50.723Z,1005.55
2016-08-18T08:10:50.751Z,1005.63
2016-08-18T08:11:50.776Z,1005.58
2016-08-18T08:13:50.830Z,1005.63
2016-08-18T08:14:50.855Z,1005.6
2016-08-18T08:15:50.884Z,1005.62
2016-08-18T08:16:50.910Z,1005.62
2016-08-18T08:17:50.937Z,1005.59
2016-08-18T08:18:50.964Z,1005.55
2016-08-18T08:19:50.988Z,1005.53
2016-08-18T08:20:51.015Z,1005.52
2016-08-18T08:21:51.042Z,1005.53
2016-08-18T08:22:51.071Z,1005.54
2016-08-18T08:23:51.098Z,1005.51
2016-08-18T08:24:51.125Z,1005.49
2016-08-18T08:25:51.150Z,1005.5
2016-08-18T08:26:51.190Z,1005.45
2016-08-18T08:27:51.205Z,1005.41
2016-08-18T08:29:51.260Z,1005.4
2016-08-18T08:30:51.305Z,1005.42
2016-08-18T08:31:51.376Z,1005.4
2016-08-18T08:32:51.338Z,1005.38
2016-08-18T08:33:51.367Z,1005.33
2016-08-18T08:34:51.445Z,1005.36
2016-08-18T08:35:52.801Z,1005.37
2016-08-18T08:36:51.595Z,1005.37
2016-08-18T08:37:52.994Z,1005.39
2016-08-18T08:38:51.531Z,1005.39
2016-08-18T08:39:51.778Z,1005.36
2016-08-18T08:40:51.558Z,1005.35
2016-08-18T08:41:51.588Z,1005.39
2016-08-18T08:42:51.766Z,1005.38
2016-08-18T08:43:51.638Z,1005.41
2016-08-18T08:45:51.690Z,1005.41
2016-08-18T08:46:51.717Z,1005.41
2016-08-18T08:47:51.796Z,1005.43
2016-08-18T08:48:51.805Z,1005.44
2016-08-18T08:49:51.798Z,1005.44
2016-08-18T08:50:51.827Z,1005.48
2016-08-18T08:51:52.359Z,1005.48
2016-08-18T08:52:51.881Z,1005.48
2016-08-18T08:53:51.909Z,1005.49
2016-08-18T08:54:51.936Z,1005.49
2016-08-18T08:55:51.962Z,1005.5
2016-08-18T08:56:52.452Z,1005.52
2016-08-18T08:57:52.018Z,1005.55
2016-08-18T08:58:52.053Z,1005.54
2016-08-18T08:59:52.093Z,1005.53
2016-08-18T09:01:52.125Z,1005.53
2016-08-18T09:02:52.152Z,1005.58
2016-08-18T09:03:52.180Z,1005.55
2016-08-18T09:04:52.206Z,1005.55
2016-08-18T09:05:52.233Z,1005.57
2016-08-18T09:06:52.261Z,1005.6
2016-08-18T09:07:52.292Z,1005.62
2016-08-18T09:08:52.316Z,1005.63
2016-08-18T09:09:52.346Z,1005.63
2016-08-18T09:10:52.369Z,1005.65
2016-08-18T09:11:52.398Z,1005.66
2016-08-18T09:12:52.428Z,1005.68
2016-08-18T09:13:52.469Z,1005.68
2016-08-18T09:14:52.481Z,1005.67
2016-08-18T09:16:52.537Z,1005.72
2016-08-18T09:17:52.565Z,1005.74
2016-08-18T09:18:52.591Z,1005.74
2016-08-18T09:19:52.619Z,1005.74
2016-08-18T09:20:52.646Z,1005.78
2016-08-18T09:21:52.674Z,1005.79
2016-08-18T09:22:52.704Z,1005.78
2016-08-18T09:23:52.731Z,1005.79
2016-08-18T09:24:52.758Z,1005.77
2016-08-18T09:25:52.787Z,1005.78
2016-08-18T09:26:52.814Z,1005.83
2016-08-18T09:27:52.840Z,1005.79
2016-08-18T09:28:52.869Z,1005.82
2016-08-18T09:29:52.897Z,1005.84
2016-08-18T09:30:52.925Z,1005.81
2016-08-18T09:31:52.953Z,1005.85
2016-08-18T09:32:52.977Z,1005.88
2016-08-18T09:33:53.006Z,1005.86
2016-08-18T09:34:53.052Z,1005.87
2016-08-18T09:35:53.063Z,1005.86
2016-08-18T09:36:53.097Z,1005.89
2016-08-18T09:37:53.120Z,1005.86
2016-08-18T09:38:53.145Z,1005.86
2016-08-18T09:39:53.172Z,1005.85
2016-08-18T09:40:53.200Z,1005.84
2016-08-18T09:41:53.230Z,1005.86
2016-08-18T09:42:53.259Z,1005.86
2016-08-18T09:43:53.285Z,1005.85
2016-08-18T09:44:53.312Z,1005.85
2016-08-18T09:45:53.340Z,1005.85
2016-08-18T09:46:53.370Z,1005.83
2016-08-18T09:48:53.439Z,1005.8
2016-08-18T09:49:53.454Z,1005.76
2016-08-18T09:50:53.478Z,1005.76
2016-08-18T09:51:53.507Z,1005.78
2016-08-18T09:52:53.535Z,1005.78
2016-08-18T09:53:53.565Z,1005.72
2016-08-18T09:54:53.591Z,1005.74
2016-08-18T09:55:53.621Z,1005.76
2016-08-18T09:56:53.647Z,1005.76
2016-08-18T09:57:53.675Z,1005.81
2016-08-18T09:58:53.706Z,1005.7
2016-08-18T09:59:53.731Z,1005.74
2016-08-18T10:00:53.766Z,1005.73
2016-08-18T10:01:53.831Z,1005.71
2016-08-18T10:02:53.817Z,1005.71
2016-08-18T10:04:53.876Z,1005.71
2016-08-18T10:05:53.902Z,1005.73
2016-08-18T10:06:53.932Z,1005.69
2016-08-18T10:07:53.962Z,1005.69
2016-08-18T10:08:53.987Z,1005.72
2016-08-18T10:09:54.016Z,1005.72
2016-08-18T10:10:54.045Z,1005.77
2016-08-18T10:11:54.076Z,1005.75
2016-08-18T10:12:54.102Z,1005.79
2016-08-18T10:13:54.133Z,1005.76
2016-08-18T10:14:54.211Z,1005.78
2016-08-18T10:15:54.191Z,1005.74
2016-08-18T10:16:54.219Z,1005.76
2016-08-18T10:17:54.247Z,1005.76
2016-08-18T10:18:54.276Z,1005.73
2016-08-18T10:20:54.337Z,1005.69
2016-08-18T10:21:54.363Z,1005.68
2016-08-18T10:22:54.395Z,1005.68
2016-08-18T10:23:54.422Z,1005.67
2016-08-18T10:24:54.453Z,1005.66
2016-08-18T10:25:54.482Z,1005.63
2016-08-18T10:26:54.512Z,1005.63
2016-08-18T10:27:54.539Z,1005.62
2016-08-18T10:28:54.570Z,1005.62
2016-08-18T10:29:54.599Z,1005.65
2016-08-18T10:30:54.625Z,1005.67
2016-08-18T10:31:54.657Z,1005.68
2016-08-18T10:32:54.687Z,1005.68
2016-08-18T10:33:54.719Z,1005.68
2016-08-18T10:34:54.744Z,1005.67
2016-08-18T10:36:54.803Z,1005.64
2016-08-18T10:37:54.831Z,1005.6
2016-08-18T10:38:54.860Z,1005.66
2016-08-18T10:39:54.891Z,1005.63
2016-08-18T10:40:54.919Z,1005.64
2016-08-18T10:41:54.946Z,1005.63
2016-08-18T10:42:54.977Z,1005.65
2016-08-18T10:43:55.005Z,1005.64
2016-08-18T10:44:55.035Z,1005.65
2016-08-18T10:45:55.069Z,1005.66
2016-08-18T10:46:55.094Z,1005.7
2016-08-18T10:47:55.120Z,1005.7
2016-08-18T10:48:55.149Z,1005.66
2016-08-18T10:49:55.179Z,1005.71
2016-08-18T10:51:55.239Z,1005.71
2016-08-18T10:52:55.267Z,1005.67
2016-08-18T10:53:55.293Z,1005.67
2016-08-18T10:54:55.322Z,1005.72
2016-08-18T10:55:55.356Z,1005.71
2016-08-18T10:56:55.379Z,1005.73
2016-08-18T10:57:55.411Z,1005.74
2016-08-18T10:58:55.437Z,1005.73
2016-08-18T10:59:55.467Z,1005.76
2016-08-18T11:00:55.544Z,1005.73
2016-08-18T11:01:55.532Z,1005.7
2016-08-18T11:02:55.554Z,1005.77
2016-08-18T11:03:55.579Z,1005.78
2016-08-18T11:04:55.608Z,1005.72
2016-08-18T11:05:55.637Z,1005.72
2016-08-18T11:06:55.666Z,1005.71
2016-08-18T11:07:55.693Z,1005.75
2016-08-18T11:08:55.724Z,1005.68
2016-08-18T11:09:55.759Z,1005.7
2016-08-18T11:10:55.781Z,1005.72
2016-08-18T11:11:55.810Z,1005.69
2016-08-18T11:12:55.836Z,1005.7
2016-08-18T11:13:55.867Z,1005.7
2016-08-18T11:14:55.892Z,1005.69
2016-08-18T11:15:55.922Z,1005.72
2016-08-18T11:16:55.952Z,1005.69
2016-08-18T11:17:55.979Z,1005.75
2016-08-18T11:18:56.008Z,1005.73
2016-08-18T11:19:56.035Z,1005.72
2016-08-18T11:20:56.077Z,1005.74
2016-08-18T11:21:56.093Z,1005.71
2016-08-18T11:23:56.149Z,1005.74
2016-08-18T11:24:56.177Z,1005.72
2016-08-18T11:25:56.205Z,1005.8
2016-08-18T11:26:56.234Z,1005.74
2016-08-18T11:27:56.262Z,1005.69
2016-08-18T11:28:56.292Z,1005.77
2016-08-18T11:29:56.318Z,1005.7
2016-08-18T11:30:56.347Z,1005.69
2016-08-18T11:31:56.375Z,1005.73
2016-08-18T11:32:56.407Z,1005.71
2016-08-18T11:33:56.433Z,1005.74
2016-08-18T11:34:56.461Z,1005.78
2016-08-18T11:35:56.491Z,1005.79
2016-08-18T11:36:56.518Z,1005.73
2016-08-18T11:37:56.554Z,1005.8
2016-08-18T11:39:56.604Z,1005.75
2016-08-18T11:40:56.631Z,1005.74
2016-08-18T11:41:56.661Z,1005.75
2016-08-18T11:42:56.690Z,1005.75
2016-08-18T11:43:56.716Z,1005.74
2016-08-18T11:44:56.746Z,1005.72
2016-08-18T11:45:56.777Z,1005.74
2016-08-18T11:46:56.806Z,1005.74
2016-08-18T11:47:56.834Z,1005.68
2016-08-18T11:48:56.865Z,1005.69
2016-08-18T11:49:56.892Z,1005.71
2016-08-18T11:50:56.921Z,1005.75
2016-08-18T11:51:56.949Z,1005.7
2016-08-18T11:52:56.978Z,1005.72
2016-08-18T11:53:57.005Z,1005.75
2016-08-18T11:55:57.062Z,1005.75
2016-08-18T11:56:57.092Z,1005.7
2016-08-18T12:11:59.914Z,1005.65
2016-08-18T12:12:59.944Z,1005.63
2016-08-18T12:13:59.971Z,1005.65
2016-08-18T12:15:00.602Z,1005.64
2016-08-18T12:16:00.632Z,1005.67
2016-08-18T12:18:00.689Z,1005.69
2016-08-18T12:19:00.718Z,1005.68
2016-08-18T12:20:00.748Z,1005.67
2016-08-18T12:21:00.775Z,1005.66
2016-08-18T12:22:00.805Z,1005.67
2016-08-18T12:23:00.838Z,1005.67
2016-08-18T12:24:00.863Z,1005.67
2016-08-18T12:25:00.888Z,1005.68
2016-08-18T12:26:00.918Z,1005.69
2016-08-18T12:27:00.949Z,1005.68
2016-08-18T12:28:00.977Z,1005.72
2016-08-18T12:29:01.003Z,1005.73
2016-08-18T12:30:01.032Z,1005.75
2016-08-18T12:31:01.062Z,1005.71
2016-08-18T12:32:01.087Z,1005.69
2016-08-18T12:34:01.145Z,1005.71
2016-08-18T12:35:01.172Z,1005.74
2016-08-18T12:36:01.200Z,1005.7
2016-08-18T12:37:01.229Z,1005.75
2016-08-18T12:38:01.266Z,1005.68
2016-08-18T12:39:01.283Z,1005.7
2016-08-18T12:40:01.312Z,1005.72
2016-08-18T12:41:01.338Z,1005.71
2016-08-18T12:42:01.368Z,1005.69
2016-08-18T12:43:01.396Z,1005.66
2016-08-18T12:44:01.424Z,1005.67
2016-08-18T12:45:01.454Z,1005.69
2016-08-18T12:46:01.479Z,1005.69
2016-08-18T12:47:01.511Z,1005.65
2016-08-18T12:49:01.566Z,1005.62
2016-08-18T12:50:01.600Z,1005.63
2016-08-18T12:51:01.622Z,1005.62
2016-08-18T12:52:01.650Z,1005.61
2016-08-18T12:53:01.681Z,1005.61
2016-08-18T12:54:01.708Z,1005.61
2016-08-18T12:55:01.736Z,1005.62
2016-08-18T12:56:01.762Z,1005.61
2016-08-18T12:57:01.790Z,1005.65
2016-08-18T12:58:01.821Z,1005.63
2016-08-18T12:59:01.849Z,1005.66
2016-08-18T13:00:01.877Z,1005.64
2016-08-18T13:01:01.907Z,1005.66
2016-08-18T13:02:01.936Z,1005.66
2016-08-18T13:03:01.966Z,1005.65
2016-08-18T13:04:01.994Z,1005.64